sensor_id;sensor_type;location;lat;lon;timestamp;pressure;altitude;pressure_sealevel;temperature;humidity
42951;BME280;28592;51.064;17.192;2022-10-16T00:00:51;100156.80;;;14.00;100.00
42951;BME280;28592;51.064;17.192;2022-10-16T00:03:37;100164.95;;;13.98;100.00
42951;BME280;28592;51.064;17.192;2022-10-16T00:06:24;100167.73;;;13.89;100.00
42951;BME280;28592;51.064;17.192;2022-10-16T00:09:09;100174.54;;;13.83;100.00
42951;BME280;28592;51.064;17.192;2022-10-16T00:11:56;100175.20;;;13.85;100.00
42951;BME280;28592;51.064;17.192;2022-10-16T00:14:42;100173.22;;;13.87;100.00
42951;BME280;28592;51.064;17.192;2022-10-16T00:17:29;100177.91;;;13.93;100.00
42951;BME280;28592;51.064;17.192;2022-10-16T00:20:14;100169.97;;;14.01;100.00
42951;BME280;28592;51.064;17.192;2022-10-16T00:23:03;100173.01;;;14.14;100.00
42951;BME280;28592;51.064;17.192;2022-10-16T00:25:56;100177.92;;;14.27;100.00
42951;BME280;28592;51.064;17.192;2022-10-16T00:28:42;100167.30;;;14.35;100.00
42951;BME280;28592;51.064;17.192;2022-10-16T00:31:28;100177.80;;;14.45;100.00
42951;BME280;28592;51.064;17.192;2022-10-16T00:34:14;100168.02;;;14.53;100.00
42951;BME280;28592;51.064;17.192;2022-10-16T00:36:59;100166.84;;;14.56;100.00
42951;BME280;28592;51.064;17.192;2022-10-16T00:39:45;100167.17;;;14.53;100.00
42951;BME280;28592;51.064;17.192;2022-10-16T00:42:30;100165.52;;;14.52;100.00
42951;BME280;28592;51.064;17.192;2022-10-16T00:45:15;100171.47;;;14.38;100.00
42951;BME280;28592;51.064;17.192;2022-10-16T00:48:01;100170.29;;;14.32;100.00
42951;BME280;28592;51.064;17.192;2022-10-16T00:50:47;100171.59;;;14.28;100.00
42951;BME280;28592;51.064;17.192;2022-10-16T00:53:32;100170.94;;;14.26;100.00
42951;BME280;28592;51.064;17.192;2022-10-16T00:56:18;100161.70;;;14.21;100.00
42951;BME280;28592;51.064;17.192;2022-10-16T00:59:11;100170.87;;;14.18;100.00
42951;BME280;28592;51.064;17.192;2022-10-16T01:02:00;100171.03;;;14.17;100.00
42951;BME280;28592;51.064;17.192;2022-10-16T01:04:49;100164.00;;;14.15;100.00
42951;BME280;28592;51.064;17.192;2022-10-16T01:13:35;100174.33;;;14.10;100.00
42951;BME280;28592;51.064;17.192;2022-10-16T01:19:36;100170.30;;;14.06;100.00
42951;BME280;28592;51.064;17.192;2022-10-16T01:22:20;100167.63;;;14.06;100.00
42951;BME280;28592;51.064;17.192;2022-10-16T01:25:18;100159.69;;;14.14;100.00
42951;BME280;28592;51.064;17.192;2022-10-16T01:28:06;100155.36;;;14.13;100.00
42951;BME280;28592;51.064;17.192;2022-10-16T01:30:58;100163.92;;;14.25;100.00
42951;BME280;28592;51.064;17.192;2022-10-16T01:33:51;100176.95;;;14.36;100.00
42951;BME280;28592;51.064;17.192;2022-10-16T01:36:47;100179.63;;;14.36;100.00
42951;BME280;28592;51.064;17.192;2022-10-16T01:39:38;100169.61;;;14.30;100.00
42951;BME280;28592;51.064;17.192;2022-10-16T01:42:36;100167.14;;;14.37;100.00
42951;BME280;28592;51.064;17.192;2022-10-16T01:45:24;100159.47;;;14.42;100.00
42951;BME280;28592;51.064;17.192;2022-10-16T01:48:14;100166.66;;;14.41;100.00
42951;BME280;28592;51.064;17.192;2022-10-16T01:51:08;100163.80;;;14.35;100.00
42951;BME280;28592;51.064;17.192;2022-10-16T01:53:57;100157.97;;;14.39;100.00
42951;BME280;28592;51.064;17.192;2022-10-16T01:56:45;100165.13;;;14.39;100.00
42951;BME280;28592;51.064;17.192;2022-10-16T01:59:32;100176.44;;;14.33;100.00
42951;BME280;28592;51.064;17.192;2022-10-16T02:02:21;100184.11;;;14.36;100.00
42951;BME280;28592;51.064;17.192;2022-10-16T02:05:20;100181.44;;;14.36;100.00
42951;BME280;28592;51.064;17.192;2022-10-16T02:08:06;100176.95;;;14.36;100.00
42951;BME280;28592;51.064;17.192;2022-10-16T02:10:51;100176.11;;;14.36;100.00
42951;BME280;28592;51.064;17.192;2022-10-16T02:16:41;100177.16;;;14.43;100.00
42951;BME280;28592;51.064;17.192;2022-10-16T02:19:27;100182.97;;;14.46;100.00
42951;BME280;28592;51.064;17.192;2022-10-16T02:22:26;100186.45;;;14.39;100.00
42951;BME280;28592;51.064;17.192;2022-10-16T02:28:16;100183.49;;;14.50;100.00
42951;BME280;28592;51.064;17.192;2022-10-16T02:31:04;100180.50;;;14.53;100.00
42951;BME280;28592;51.064;17.192;2022-10-16T02:33:54;100186.84;;;14.52;100.00
42951;BME280;28592;51.064;17.192;2022-10-16T02:36:41;100194.48;;;14.47;100.00
42951;BME280;28592;51.064;17.192;2022-10-16T02:39:28;100197.34;;;14.53;100.00
42951;BME280;28592;51.064;17.192;2022-10-16T02:42:15;100199.69;;;14.56;100.00
42951;BME280;28592;51.064;17.192;2022-10-16T02:45:00;100211.69;;;14.60;100.00
42951;BME280;28592;51.064;17.192;2022-10-16T02:47:45;100207.72;;;14.64;100.00
42951;BME280;28592;51.064;17.192;2022-10-16T02:50:31;100194.55;;;14.63;100.00
42951;BME280;28592;51.064;17.192;2022-10-16T02:53:16;100209.38;;;14.65;100.00
42951;BME280;28592;51.064;17.192;2022-10-16T02:56:01;100209.54;;;14.64;100.00
42951;BME280;28592;51.064;17.192;2022-10-16T02:58:47;100204.56;;;14.69;100.00
42951;BME280;28592;51.064;17.192;2022-10-16T03:01:32;100203.91;;;14.75;100.00
42951;BME280;28592;51.064;17.192;2022-10-16T03:04:17;100212.89;;;14.74;100.00
42951;BME280;28592;51.064;17.192;2022-10-16T03:07:03;100211.42;;;14.79;100.00
42951;BME280;28592;51.064;17.192;2022-10-16T03:09:48;100200.91;;;14.78;100.00
42951;BME280;28592;51.064;17.192;2022-10-16T03:12:33;100207.58;;;14.82;100.00
42951;BME280;28592;51.064;17.192;2022-10-16T03:15:18;100210.43;;;14.88;100.00
42951;BME280;28592;51.064;17.192;2022-10-16T03:18:04;100213.77;;;14.98;100.00
42951;BME280;28592;51.064;17.192;2022-10-16T03:20:49;100219.60;;;14.94;100.00
42951;BME280;28592;51.064;17.192;2022-10-16T03:23:34;100218.11;;;14.91;100.00
42951;BME280;28592;51.064;17.192;2022-10-16T03:26:20;100222.64;;;15.07;100.00
42951;BME280;28592;51.064;17.192;2022-10-16T03:29:05;100225.95;;;15.09;100.00
42951;BME280;28592;51.064;17.192;2022-10-16T03:31:51;100229.98;;;15.13;100.00
42951;BME280;28592;51.064;17.192;2022-10-16T03:34:36;100225.12;;;15.00;100.00
42951;BME280;28592;51.064;17.192;2022-10-16T03:37:21;100229.98;;;15.13;100.00
42951;BME280;28592;51.064;17.192;2022-10-16T03:40:07;100238.48;;;15.24;100.00
42951;BME280;28592;51.064;17.192;2022-10-16T03:42:52;100233.81;;;15.34;100.00
42951;BME280;28592;51.064;17.192;2022-10-16T03:45:41;100233.04;;;15.42;100.00
42951;BME280;28592;51.064;17.192;2022-10-16T03:48:27;100235.69;;;15.50;100.00
42951;BME280;28592;51.064;17.192;2022-10-16T03:51:12;100247.05;;;15.52;100.00
42951;BME280;28592;51.064;17.192;2022-10-16T03:53:57;100250.05;;;15.57;100.00
42951;BME280;28592;51.064;17.192;2022-10-16T03:56:42;100245.70;;;15.56;100.00
42951;BME280;28592;51.064;17.192;2022-10-16T03:59:28;100237.70;;;15.40;100.00
42951;BME280;28592;51.064;17.192;2022-10-16T04:02:13;100246.99;;;15.36;100.00
42951;BME280;28592;51.064;17.192;2022-10-16T04:05:00;100240.65;;;15.21;100.00
42951;BME280;28592;51.064;17.192;2022-10-16T04:07:49;100234.50;;;15.20;100.00
42951;BME280;28592;51.064;17.192;2022-10-16T04:10:34;100236.66;;;15.17;100.00
42951;BME280;28592;51.064;17.192;2022-10-16T04:13:20;100249.00;;;15.10;100.00
42951;BME280;28592;51.064;17.192;2022-10-16T04:16:08;100245.16;;;15.12;100.00
42951;BME280;28592;51.064;17.192;2022-10-16T04:18:54;100244.83;;;15.15;100.00
42951;BME280;28592;51.064;17.192;2022-10-16T04:21:39;100255.00;;;15.20;100.00
42951;BME280;28592;51.064;17.192;2022-10-16T04:24:24;100255.97;;;15.03;100.00
42951;BME280;28592;51.064;17.192;2022-10-16T04:27:10;100258.99;;;15.08;100.00
42951;BME280;28592;51.064;17.192;2022-10-16T04:29:59;100257.95;;;15.01;100.00
42951;BME280;28592;51.064;17.192;2022-10-16T04:32:48;100256.80;;;14.95;100.00
42951;BME280;28592;51.064;17.192;2022-10-16T04:35:34;100257.80;;;14.94;100.00
42951;BME280;28592;51.064;17.192;2022-10-16T04:38:19;100265.31;;;14.99;100.00
42951;BME280;28592;51.064;17.192;2022-10-16T04:41:08;100259.30;;;14.97;100.00
42951;BME280;28592;51.064;17.192;2022-10-16T04:43:53;100261.12;;;14.96;100.00
42951;BME280;28592;51.064;17.192;2022-10-16T04:46:38;100269.26;;;14.79;100.00
42951;BME280;28592;51.064;17.192;2022-10-16T04:49:27;100270.27;;;14.78;100.00
42951;BME280;28592;51.064;17.192;2022-10-16T04:52:12;100282.95;;;14.84;100.00
42951;BME280;28592;51.064;17.192;2022-10-16T04:54:58;100277.94;;;14.81;100.00
42951;BME280;28592;51.064;17.192;2022-10-16T04:57:47;100286.11;;;14.87;100.00
42951;BME280;28592;51.064;17.192;2022-10-16T05:00:32;100279.96;;;14.87;100.00
42951;BME280;28592;51.064;17.192;2022-10-16T05:03:20;100276.97;;;14.90;100.00
42951;BME280;28592;51.064;17.192;2022-10-16T05:06:06;100276.12;;;14.89;100.00
42951;BME280;28592;51.064;17.192;2022-10-16T05:08:52;100270.11;;;14.87;100.00
42951;BME280;28592;51.064;17.192;2022-10-16T05:11:37;100267.59;;;14.86;100.00
42951;BME280;28592;51.064;17.192;2022-10-16T05:14:23;100266.23;;;14.74;100.00
42951;BME280;28592;51.064;17.192;2022-10-16T05:17:08;100293.46;;;14.85;100.00
42951;BME280;28592;51.064;17.192;2022-10-16T05:19:53;100287.97;;;14.87;100.00
42951;BME280;28592;51.064;17.192;2022-10-16T05:22:39;100290.47;;;14.88;100.00
42951;BME280;28592;51.064;17.192;2022-10-16T05:25:24;100295.77;;;14.80;100.00
42951;BME280;28592;51.064;17.192;2022-10-16T05:28:09;100294.27;;;14.78;100.00
42951;BME280;28592;51.064;17.192;2022-10-16T05:30:55;100293.11;;;14.80;100.00
42951;BME280;28592;51.064;17.192;2022-10-16T05:33:41;100298.44;;;14.80;100.00
42951;BME280;28592;51.064;17.192;2022-10-16T05:36:32;100291.61;;;14.86;100.00
42951;BME280;28592;51.064;17.192;2022-10-16T05:39:17;100291.80;;;14.92;100.00
42951;BME280;28592;51.064;17.192;2022-10-16T05:42:05;100293.30;;;14.87;100.00
42951;BME280;28592;51.064;17.192;2022-10-16T05:44:50;100291.61;;;14.86;100.00
42951;BME280;28592;51.064;17.192;2022-10-16T05:47:35;100287.25;;;14.77;100.00
42951;BME280;28592;51.064;17.192;2022-10-16T05:50:21;100296.95;;;14.86;100.00
42951;BME280;28592;51.064;17.192;2022-10-16T05:53:06;100303.58;;;14.74;100.00
42951;BME280;28592;51.064;17.192;2022-10-16T05:55:55;100309.27;;;14.79;100.00
42951;BME280;28592;51.064;17.192;2022-10-16T05:58:41;100298.44;;;14.80;100.00
42951;BME280;28592;51.064;17.192;2022-10-16T06:01:26;100302.28;;;14.86;100.00
42951;BME280;28592;51.064;17.192;2022-10-16T06:04:11;100300.78;;;14.83;100.00
42951;BME280;28592;51.064;17.192;2022-10-16T06:06:59;100308.10;;;14.81;100.00
42951;BME280;28592;51.064;17.192;2022-10-16T06:09:51;100328.27;;;14.76;100.00
42951;BME280;28592;51.064;17.192;2022-10-16T06:12:36;100326.77;;;14.81;100.00
42951;BME280;28592;51.064;17.192;2022-10-16T06:15:22;100323.62;;;14.86;100.00
42951;BME280;28592;51.064;17.192;2022-10-16T06:18:08;100329.48;;;14.89;100.00
42951;BME280;28592;51.064;17.192;2022-10-16T06:20:54;100325.52;;;15.01;100.00
42951;BME280;28592;51.064;17.192;2022-10-16T06:23:39;100334.73;;;15.07;100.00
42951;BME280;28592;51.064;17.192;2022-10-16T06:26:27;100335.25;;;15.18;100.00
42951;BME280;28592;51.064;17.192;2022-10-16T06:29:13;100339.73;;;15.18;100.00
42951;BME280;28592;51.064;17.192;2022-10-16T06:31:58;100334.59;;;15.24;100.00
42951;BME280;28592;51.064;17.192;2022-10-16T06:34:43;100342.51;;;15.50;100.00
42951;BME280;28592;51.064;17.192;2022-10-16T06:37:28;100342.84;;;15.47;100.00
42951;BME280;28592;51.064;17.192;2022-10-16T06:40:14;100340.17;;;15.47;100.00
42951;BME280;28592;51.064;17.192;2022-10-16T06:42:59;100350.70;;;15.56;100.00
42951;BME280;28592;51.064;17.192;2022-10-16T06:45:56;100360.39;;;15.65;100.00
42951;BME280;28592;51.064;17.192;2022-10-16T06:48:41;100357.41;;;15.76;100.00
42951;BME280;28592;51.064;17.192;2022-10-16T06:51:27;100357.39;;;15.93;100.00
42951;BME280;28592;51.064;17.192;2022-10-16T06:54:14;100354.89;;;15.91;100.00
42951;BME280;28592;51.064;17.192;2022-10-16T06:57:02;100370.09;;;16.07;100.00
42951;BME280;28592;51.064;17.192;2022-10-16T06:59:48;100379.95;;;16.14;100.00
42951;BME280;28592;51.064;17.192;2022-10-16T07:02:33;100384.45;;;16.22;100.00
42951;BME280;28592;51.064;17.192;2022-10-16T07:05:18;100381.12;;;16.20;100.00
42951;BME280;28592;51.064;17.192;2022-10-16T07:08:07;100383.13;;;16.18;100.00
42951;BME280;28592;51.064;17.192;2022-10-16T07:10:59;100388.78;;;16.31;100.00
42951;BME280;28592;51.064;17.192;2022-10-16T07:13:45;100387.62;;;16.33;100.00
42951;BME280;28592;51.064;17.192;2022-10-16T07:16:32;100396.97;;;16.29;100.00
42951;BME280;28592;51.064;17.192;2022-10-16T07:19:18;100397.31;;;16.34;100.00
42951;BME280;28592;51.064;17.192;2022-10-16T07:22:03;100394.64;;;16.34;100.00
42951;BME280;28592;51.064;17.192;2022-10-16T07:24:49;100398.97;;;16.43;100.00
42951;BME280;28592;51.064;17.192;2022-10-16T07:27:37;100400.49;;;16.38;100.00
42951;BME280;28592;51.064;17.192;2022-10-16T07:30:22;100411.36;;;16.52;100.00
42951;BME280;28592;51.064;17.192;2022-10-16T07:33:07;100405.33;;;16.50;100.00
42951;BME280;28592;51.064;17.192;2022-10-16T07:35:54;100401.97;;;16.56;100.00
42951;BME280;28592;51.064;17.192;2022-10-16T07:38:40;100410.61;;;16.82;100.00
42951;BME280;28592;51.064;17.192;2022-10-16T07:41:27;100407.93;;;16.82;100.00
42951;BME280;28592;51.064;17.192;2022-10-16T07:44:13;100399.91;;;16.82;100.00
42951;BME280;28592;51.064;17.192;2022-10-16T07:46:58;100401.77;;;16.82;100.00
42951;BME280;28592;51.064;17.192;2022-10-16T07:49:43;100399.54;;;16.93;100.00
42951;BME280;28592;51.064;17.192;2022-10-16T07:52:29;100410.84;;;17.11;100.00
42951;BME280;28592;51.064;17.192;2022-10-16T07:55:14;100413.12;;;17.30;100.00
42951;BME280;28592;51.064;17.192;2022-10-16T07:58:00;100405.43;;;17.27;100.00
42951;BME280;28592;51.064;17.192;2022-10-16T08:00:46;100407.23;;;17.35;100.00
42951;BME280;28592;51.064;17.192;2022-10-16T08:03:31;100404.30;;;17.53;100.00
42951;BME280;28592;51.064;17.192;2022-10-16T08:06:18;100415.30;;;17.66;100.00
42951;BME280;28592;51.064;17.192;2022-10-16T08:09:05;100407.34;;;17.49;100.00
42951;BME280;28592;51.064;17.192;2022-10-16T08:11:50;100413.96;;;17.62;100.00
42951;BME280;28592;51.064;17.192;2022-10-16T08:14:37;100407.97;;;17.60;100.00
42951;BME280;28592;51.064;17.192;2022-10-16T08:17:22;100404.09;;;17.85;100.00
42951;BME280;28592;51.064;17.192;2022-10-16T08:20:08;100415.90;;;18.21;100.00
42951;BME280;28592;51.064;17.192;2022-10-16T08:22:54;100416.88;;;18.42;100.00
42951;BME280;28592;51.064;17.192;2022-10-16T08:25:41;100424.70;;;18.29;100.00
42951;BME280;28592;51.064;17.192;2022-10-16T08:28:27;100432.35;;;18.40;100.00
42951;BME280;28592;51.064;17.192;2022-10-16T08:31:16;100419.93;;;18.39;100.00
42951;BME280;28592;51.064;17.192;2022-10-16T08:34:01;100434.62;;;18.80;100.00
42951;BME280;28592;51.064;17.192;2022-10-16T08:36:46;100445.92;;;19.05;100.00
42951;BME280;28592;51.064;17.192;2022-10-16T08:39:31;100440.55;;;19.05;100.00
42951;BME280;28592;51.064;17.192;2022-10-16T08:48:23;100445.47;;;18.87;100.00
42951;BME280;28592;51.064;17.192;2022-10-16T08:51:16;100437.41;;;18.72;100.00
42951;BME280;28592;51.064;17.192;2022-10-16T08:54:08;100436.38;;;18.59;100.00
42951;BME280;28592;51.064;17.192;2022-10-16T08:57:11;100444.42;;;18.59;100.00
42951;BME280;28592;51.064;17.192;2022-10-16T09:00:00;100440.90;;;18.58;100.00
42951;BME280;28592;51.064;17.192;2022-10-16T09:02:56;100456.75;;;18.68;100.00
42951;BME280;28592;51.064;17.192;2022-10-16T09:05:57;100456.09;;;18.66;100.00
42951;BME280;28592;51.064;17.192;2022-10-16T09:08:59;100463.05;;;18.89;100.00
42951;BME280;28592;51.064;17.192;2022-10-16T09:14:50;100465.58;;;19.05;100.00
42951;BME280;28592;51.064;17.192;2022-10-16T09:20:45;100471.31;;;19.46;100.00
42951;BME280;28592;51.064;17.192;2022-10-16T09:23:35;100472.72;;;19.42;100.00
42951;BME280;28592;51.064;17.192;2022-10-16T09:26:21;100468.56;;;19.40;100.00
42951;BME280;28592;51.064;17.192;2022-10-16T09:29:14;100470.41;;;19.39;100.00
42951;BME280;28592;51.064;17.192;2022-10-16T09:34:59;100473.84;;;19.83;100.00
42951;BME280;28592;51.064;17.192;2022-10-16T09:37:47;100477.57;;;19.82;100.00
42951;BME280;28592;51.064;17.192;2022-10-16T09:40:38;100470.80;;;20.07;100.00
42951;BME280;28592;51.064;17.192;2022-10-16T09:43:42;100477.36;;;20.19;100.00
42951;BME280;28592;51.064;17.192;2022-10-16T09:46:35;100474.09;;;20.24;100.00
42951;BME280;28592;51.064;17.192;2022-10-16T09:49:26;100473.02;;;20.18;100.00
42951;BME280;28592;51.064;17.192;2022-10-16T09:52:15;100472.17;;;20.18;100.00
42951;BME280;28592;51.064;17.192;2022-10-16T09:55:13;100469.09;;;20.21;100.00
42951;BME280;28592;51.064;17.192;2022-10-16T09:57:58;100471.56;;;20.01;100.00
42951;BME280;28592;51.064;17.192;2022-10-16T10:00:53;100464.33;;;20.02;100.00
42951;BME280;28592;51.064;17.192;2022-10-16T10:03:43;100471.86;;;19.92;100.00
42951;BME280;28592;51.064;17.192;2022-10-16T10:06:36;100461.30;;;19.90;100.00
42951;BME280;28592;51.064;17.192;2022-10-16T10:09:26;100464.84;;;20.12;100.00
42951;BME280;28592;51.064;17.192;2022-10-16T10:12:19;100470.09;;;19.99;100.00
42951;BME280;28592;51.064;17.192;2022-10-16T10:15:11;100465.33;;;20.15;100.00
42951;BME280;28592;51.064;17.192;2022-10-16T10:17:57;100463.56;;;20.08;100.00
42951;BME280;28592;51.064;17.192;2022-10-16T10:20:43;100467.06;;;20.08;100.00
42951;BME280;28592;51.064;17.192;2022-10-16T10:23:29;100455.81;;;20.61;100.00
42951;BME280;28592;51.064;17.192;2022-10-16T10:26:22;100458.50;;;20.61;100.00
42951;BME280;28592;51.064;17.192;2022-10-16T10:29:18;100458.66;;;21.09;100.00
42951;BME280;28592;51.064;17.192;2022-10-16T10:32:17;100462.55;;;21.40;100.00
42951;BME280;28592;51.064;17.192;2022-10-16T10:35:13;100463.39;;;21.41;100.00
42951;BME280;28592;51.064;17.192;2022-10-16T10:38:16;100460.70;;;21.41;100.00
42951;BME280;28592;51.064;17.192;2022-10-16T10:44:11;100460.13;;;21.58;100.00
42951;BME280;28592;51.064;17.192;2022-10-16T10:47:05;100472.38;;;21.54;100.00
42951;BME280;28592;51.064;17.192;2022-10-16T10:55:46;100454.05;;;21.90;100.00
42951;BME280;28592;51.064;17.192;2022-10-16T10:58:47;100456.77;;;22.03;100.00
42951;BME280;28592;51.064;17.192;2022-10-16T11:07:34;100462.63;;;22.20;99.16
42951;BME280;28592;51.064;17.192;2022-10-16T11:10:25;100463.65;;;22.19;99.28
42951;BME280;28592;51.064;17.192;2022-10-16T11:16:21;100464.88;;;22.10;98.75
42951;BME280;28592;51.064;17.192;2022-10-16T11:19:16;100459.88;;;22.00;97.01
42951;BME280;28592;51.064;17.192;2022-10-16T11:34:08;100454.53;;;22.46;96.04
42951;BME280;28592;51.064;17.192;2022-10-16T11:39:50;100446.17;;;21.42;100.00
42951;BME280;28592;51.064;17.192;2022-10-16T11:42:41;100440.14;;;21.40;100.00
42951;BME280;28592;51.064;17.192;2022-10-16T11:48:39;100446.39;;;21.94;99.47
42951;BME280;28592;51.064;17.192;2022-10-16T11:57:26;100440.83;;;22.34;98.34
42951;BME280;28592;51.064;17.192;2022-10-16T12:00:22;100438.76;;;22.36;98.30
42951;BME280;28592;51.064;17.192;2022-10-16T12:03:17;100442.03;;;21.99;97.75
42951;BME280;28592;51.064;17.192;2022-10-16T12:06:15;100448.94;;;21.61;98.80
42951;BME280;28592;51.064;17.192;2022-10-16T12:09:04;100462.62;;;21.60;99.74
42951;BME280;28592;51.064;17.192;2022-10-16T12:11:49;100453.42;;;21.41;100.00
42951;BME280;28592;51.064;17.192;2022-10-16T12:14:39;100457.16;;;21.40;100.00
42951;BME280;28592;51.064;17.192;2022-10-16T12:17:33;100460.55;;;21.15;100.00
42951;BME280;28592;51.064;17.192;2022-10-16T12:20:22;100455.86;;;21.30;100.00
42951;BME280;28592;51.064;17.192;2022-10-16T12:23:19;100462.91;;;21.31;100.00
42951;BME280;28592;51.064;17.192;2022-10-16T12:26:07;100471.75;;;21.18;100.00
42951;BME280;28592;51.064;17.192;2022-10-16T12:28:52;100484.09;;;21.00;100.00
42951;BME280;28592;51.064;17.192;2022-10-16T12:31:45;100479.61;;;20.85;100.00
42951;BME280;28592;51.064;17.192;2022-10-16T12:34:40;100476.91;;;20.85;100.00
42951;BME280;28592;51.064;17.192;2022-10-16T12:37:31;100499.13;;;20.66;100.00
42951;BME280;28592;51.064;17.192;2022-10-16T12:40:28;100488.55;;;20.65;100.00
42951;BME280;28592;51.064;17.192;2022-10-16T12:43:24;100505.77;;;20.43;100.00
42951;BME280;28592;51.064;17.192;2022-10-16T12:55:16;100502.88;;;20.44;100.00
42951;BME280;28592;51.064;17.192;2022-10-16T13:12:57;100523.75;;;20.63;100.00
42951;BME280;28592;51.064;17.192;2022-10-16T13:15:57;100524.78;;;20.62;100.00
42951;BME280;28592;51.064;17.192;2022-10-16T13:18:50;100520.98;;;20.78;100.00
42951;BME280;28592;51.064;17.192;2022-10-16T13:30:51;100531.61;;;21.07;100.00
42951;BME280;28592;51.064;17.192;2022-10-16T13:33:35;100523.52;;;21.07;100.00
42951;BME280;28592;51.064;17.192;2022-10-16T13:36:27;100535.39;;;20.92;100.00
42951;BME280;28592;51.064;17.192;2022-10-16T13:39:16;100534.84;;;20.96;100.00
42951;BME280;28592;51.064;17.192;2022-10-16T13:42:09;100532.81;;;21.05;100.00
42951;BME280;28592;51.064;17.192;2022-10-16T13:44:57;100526.69;;;21.17;100.00
42951;BME280;28592;51.064;17.192;2022-10-16T13:47:42;100520.45;;;21.17;100.00
42951;BME280;28592;51.064;17.192;2022-10-16T13:50:28;100538.31;;;21.18;100.00
42951;BME280;28592;51.064;17.192;2022-10-16T13:53:14;100540.09;;;21.38;100.00
42951;BME280;28592;51.064;17.192;2022-10-16T13:56:02;100538.87;;;21.75;100.00
42951;BME280;28592;51.064;17.192;2022-10-16T14:01:45;100538.57;;;22.04;100.00
42951;BME280;28592;51.064;17.192;2022-10-16T14:04:32;100539.18;;;21.99;100.00
42951;BME280;28592;51.064;17.192;2022-10-16T14:07:24;100530.04;;;21.94;100.00
42951;BME280;28592;51.064;17.192;2022-10-16T14:10:34;100537.98;;;22.15;100.00
42951;BME280;28592;51.064;17.192;2022-10-16T14:13:16;100548.42;;;22.37;99.72
42951;BME280;28592;51.064;17.192;2022-10-16T14:16:07;100549.22;;;22.25;98.80
42951;BME280;28592;51.064;17.192;2022-10-16T14:19:00;100556.28;;;22.19;100.00
42951;BME280;28592;51.064;17.192;2022-10-16T14:21:46;100552.53;;;22.20;100.00
42951;BME280;28592;51.064;17.192;2022-10-16T14:24:35;100552.23;;;21.96;100.00
42951;BME280;28592;51.064;17.192;2022-10-16T14:30:22;100558.59;;;21.75;98.91
42951;BME280;28592;51.064;17.192;2022-10-16T14:39:13;100561.22;;;21.69;100.00
42951;BME280;28592;51.064;17.192;2022-10-16T14:41:57;100562.11;;;21.42;100.00
42951;BME280;28592;51.064;17.192;2022-10-16T14:44:43;100564.88;;;21.21;100.00
42951;BME280;28592;51.064;17.192;2022-10-16T14:47:29;100567.45;;;21.35;100.00
42951;BME280;28592;51.064;17.192;2022-10-16T14:50:15;100564.95;;;21.34;100.00
42951;BME280;28592;51.064;17.192;2022-10-16T14:53:00;100567.97;;;21.18;100.00
42951;BME280;28592;51.064;17.192;2022-10-16T14:55:46;100569.76;;;21.11;100.00
42951;BME280;28592;51.064;17.192;2022-10-16T14:58:32;100565.88;;;21.20;100.00
42951;BME280;28592;51.064;17.192;2022-10-16T15:01:18;100570.88;;;21.23;100.00
42951;BME280;28592;51.064;17.192;2022-10-16T15:04:03;100582.42;;;21.10;100.00
42951;BME280;28592;51.064;17.192;2022-10-16T15:06:49;100582.64;;;21.15;100.00
42951;BME280;28592;51.064;17.192;2022-10-16T15:09:34;100584.92;;;21.12;100.00
42951;BME280;28592;51.064;17.192;2022-10-16T15:12:19;100591.58;;;20.95;100.00
42951;BME280;28592;51.064;17.192;2022-10-16T15:18:02;100586.72;;;20.62;100.00
42951;BME280;28592;51.064;17.192;2022-10-16T15:20:49;100582.81;;;21.07;100.00
42951;BME280;28592;51.064;17.192;2022-10-16T15:23:35;100585.79;;;21.19;100.00
42951;BME280;28592;51.064;17.192;2022-10-16T15:26:25;100587.64;;;21.18;100.00
42951;BME280;28592;51.064;17.192;2022-10-16T15:29:11;100583.34;;;21.24;100.00
42951;BME280;28592;51.064;17.192;2022-10-16T15:31:57;100600.98;;;21.26;100.00
42951;BME280;28592;51.064;17.192;2022-10-16T15:34:45;100592.70;;;21.28;100.00
42951;BME280;28592;51.064;17.192;2022-10-16T15:37:30;100592.89;;;21.26;100.00
42951;BME280;28592;51.064;17.192;2022-10-16T15:40:19;100581.27;;;21.26;100.00
42951;BME280;28592;51.064;17.192;2022-10-16T15:43:04;100596.96;;;21.16;100.00
42951;BME280;28592;51.064;17.192;2022-10-16T15:46:02;100600.38;;;21.03;100.00
42951;BME280;28592;51.064;17.192;2022-10-16T15:48:50;100598.00;;;20.94;100.00
42951;BME280;28592;51.064;17.192;2022-10-16T15:51:38;100603.91;;;20.82;100.00
42951;BME280;28592;51.064;17.192;2022-10-16T15:54:24;100613.27;;;20.65;100.00
42951;BME280;28592;51.064;17.192;2022-10-16T15:57:09;100615.25;;;20.57;100.00
42951;BME280;28592;51.064;17.192;2022-10-16T15:59:54;100622.33;;;20.43;100.00
42951;BME280;28592;51.064;17.192;2022-10-16T16:02:40;100626.92;;;20.28;100.00
42951;BME280;28592;51.064;17.192;2022-10-16T16:05:26;100627.12;;;20.12;100.00
42951;BME280;28592;51.064;17.192;2022-10-16T16:08:13;100626.27;;;20.12;100.00
42951;BME280;28592;51.064;17.192;2022-10-16T16:11:00;100625.27;;;19.98;100.00
42951;BME280;28592;51.064;17.192;2022-10-16T16:13:46;100630.66;;;19.69;100.00
42951;BME280;28592;51.064;17.192;2022-10-16T16:16:31;100628.16;;;19.68;100.00